EDT,Max TemperatureF,Mean TemperatureF,Min TemperatureF,Max Dew PointF,MeanDew PointF,Min DewpointF,Max Humidity, Mean Humidity, Min Humidity, Max Sea Level PressureIn, Mean Sea Level PressureIn, Min Sea Level PressureIn, Max VisibilityMiles, Mean VisibilityMiles, Min VisibilityMiles, Max Wind SpeedMPH, Mean Wind SpeedMPH, Max Gust SpeedMPH,PrecipitationIn, CloudCover, Events, WindDirDegrees
2013-3-1,62,58,54,48,40,32,80,53,33,30.00,29.96,29.93,10,10,10,21,13,,0.00,3,,290
2013-3-2,59,54,47,40,33,26,59,48,28,30.05,30.01,29.95,10,10,10,24,17,30,0.00,1,,293
2013-3-3,56,48,40,35,31,29,67,53,38,30.17,30.05,30.00,10,10,10,24,16,30,0.00,1,,292
2013-3-4,61,51,41,43,33,21,71,51,24,30.26,30.19,30.16,10,10,10,16,10,,0.00,0,,336
2013-3-5,70,58,47,59,49,41,88,67,38,30.22,30.13,30.04,10,10,9,18,8,,0.00,0,,187
2013-3-6,71,62,51,60,43,26,88,56,19,30.14,30.02,29.96,10,10,10,24,16,31,0.00,3,,277
2013-3-7,64,54,45,49,41,32,79,60,45,30.22,30.18,30.11,10,10,10,21,14,23,0.00,0,,346
2013-3-8,66,58,51,51,48,45,90,68,47,30.24,30.20,30.16,10,10,10,17,8,,0.00,0,,344
2013-3-9,70,62,55,54,51,46,83,62,48,30.25,30.20,30.15,10,10,10,15,9,,0.00,0,,7
2013-3-10,74,70,65,58,55,52,68,61,51,30.20,30.15,30.13,10,10,10,15,10,,0.00,3,,83
2013-3-11,75,68,63,64,60,55,83,72,59,30.14,30.05,29.96,10,9,3,18,11,,0.00,0,,136
2013-3-12,73,68,61,68,64,58,94,83,73,30.03,29.95,29.91,10,10,4,18,13,25,0.16,4,Rain,219
2013-3-13,70,62,55,58,48,38,92,62,32,30.18,30.09,30.02,10,10,10,21,13,24,0.00,0,,341
2013-3-14,63,58,53,50,41,36,75,54,44,30.27,30.22,30.16,10,10,10,22,15,25,0.00,0,,339
2013-3-15,65,57,49,48,42,36,75,56,40,30.31,30.25,30.19,10,10,10,12,8,,0.00,0,,350
2013-3-16,73,62,52,56,50,37,80,61,37,30.22,30.16,30.09,10,10,10,18,9,,0.00,0,,202
2013-3-17,73,64,55,62,55,50,83,71,52,30.19,30.12,30.05,10,10,10,15,8,,0.00,1,,176
2013-3-18,77,69,64,68,63,58,88,79,68,30.09,30.02,29.95,10,10,9,16,10,,0.00,2,Rain,194
2013-3-19,77,70,64,66,64,60,96,85,58,30.04,29.98,29.93,10,10,8,13,6,,0.00,2,,91
2013-3-20,76,69,62,68,64,57,94,84,61,29.99,29.92,29.81,10,10,10,20,7,25,0.00,3,,54
2013-3-21,67,60,55,57,44,32,87,57,28,29.97,29.93,29.88,10,10,10,17,13,22,0.00,0,,332
2013-3-22,74,64,55,63,55,46,88,70,47,30.06,29.99,29.94,10,10,10,13,8,,0.00,4,Rain,97
2013-3-23,87,77,68,72,67,63,100,84,49,30.01,29.92,29.78,10,9,4,18,10,25,0.00,3,Rain,145
2013-3-24,87,78,68,70,67,63,96,84,51,29.88,29.74,29.65,10,9,1,45,13,56,0.00,3,Rain-Thunderstorm,232
2013-3-25,75,67,57,70,50,29,95,62,19,30.04,29.87,29.75,10,10,10,21,14,29,0.00,2,,291
2013-3-26,62,56,50,39,29,21,56,37,21,30.25,30.13,30.04,10,10,10,28,19,32,0.00,1,,296
2013-3-27,61,54,47,42,35,28,63,51,31,30.32,30.26,30.22,10,10,10,18,14,18,0.00,0,,345
2013-3-28,65,56,48,47,41,33,81,56,36,30.32,30.28,30.22,10,10,10,17,10,,0.00,0,,339
2013-3-29,70,62,55,50,46,41,80,55,36,30.35,30.30,30.25,10,10,10,10,7,,0.00,0,,11
2013-3-30,74,64,55,55,52,45,85,61,46,30.30,30.24,30.18,10,10,10,20,8,22,0.00,0,,162
2013-3-31,78,70,61,66,58,52,84,66,41,30.21,30.13,30.04,10,10,10,20,11,25,0.00,0,,185